Sainte-Marie, Canada
Current Conditions -  °F | °C
As of 8:00 AM on Thursday 27 Nov 2014 (Local Time) from CYQB Reporting Station
Broken Clouds Broken Clouds  
Wind Chill: 20°   Ceiling: 12000
Heat Index: 27°   Visibility: 30mi
Dew Point: 14°   Wind: 6mph
Humidity: 59%   Direction: 300°WNW
Pressure: 29.97"   Gusts: NA
Location:  46.43°N, 71.02°W
Report Text: CYQB 271300Z 30005KT 30SM FEW030 BKN120 BKN220 M03/M10 A2997 RMK SC2AC4CI1 SLP154
Loading
Personal Weather Stations






























Interactive Weather Map New forecast layout! Learn more

10-Day Weather Forecast

Advertisements
Track Severe Weather on mobile